createdAt,value
2023-05-06T00:02:01.917Z,2.22
2023-05-06T00:04:07.189Z,2.42
2023-05-06T00:06:12.433Z,3.22
2023-05-06T00:08:17.250Z,2.95
2023-05-06T00:10:22.335Z,3.22
2023-05-06T00:12:27.270Z,3.42
2023-05-06T00:14:34.834Z,2.38
2023-05-06T00:16:39.777Z,2.70
2023-05-06T00:18:44.764Z,2.80
2023-05-06T00:20:50.022Z,3.00
2023-05-06T00:22:54.892Z,2.75
2023-05-06T00:24:59.865Z,2.75
2023-05-06T00:27:04.731Z,2.67
2023-05-06T00:29:09.541Z,3.00
2023-05-06T00:31:17.505Z,3.03
2023-05-06T00:33:22.389Z,3.22
2023-05-06T00:35:27.473Z,3.30
2023-05-06T00:37:32.395Z,2.90
2023-05-06T00:39:37.423Z,3.40
2023-05-06T00:41:42.190Z,3.55
2023-05-06T00:43:47.327Z,3.13
2023-05-06T00:45:52.569Z,3.80
2023-05-06T00:48:01.091Z,3.60
2023-05-06T00:50:07.084Z,3.03
2023-05-06T00:52:12.377Z,3.13
2023-05-06T00:54:17.330Z,2.95
2023-05-06T00:56:22.397Z,3.13
2023-05-06T00:58:27.525Z,3.38
2023-05-06T01:00:32.790Z,3.42
2023-05-06T01:02:46.230Z,3.28
2023-05-06T01:04:55.644Z,3.58
2023-05-06T01:07:09.741Z,3.10
2023-05-06T01:09:23.774Z,2.90
2023-05-06T01:11:38.580Z,3.53
2023-05-06T01:13:50.392Z,3.10
2023-05-06T01:15:58.313Z,3.03
2023-05-06T01:18:08.221Z,3.40
2023-05-06T01:20:17.729Z,2.78
2023-05-06T01:22:22.993Z,2.83
2023-05-06T01:24:40.936Z,2.95
2023-05-06T01:26:45.982Z,2.60
2023-05-06T01:28:50.982Z,2.28
2023-05-06T01:31:04.127Z,3.15
2023-05-06T01:33:17.855Z,2.63
2023-05-06T01:35:30.363Z,2.78
2023-05-06T01:37:45.078Z,2.83
2023-05-06T01:39:55.651Z,2.50
2023-05-06T01:42:02.217Z,2.83
2023-05-06T01:44:10.017Z,2.63
2023-05-06T01:46:19.091Z,2.50
2023-05-06T01:48:27.066Z,2.60
2023-05-06T01:50:33.513Z,2.72
2023-05-06T01:52:39.158Z,3.03
2023-05-06T01:54:44.445Z,2.78
2023-05-06T01:56:51.968Z,2.53
2023-05-06T01:58:57.764Z,2.67
2023-05-06T02:01:04.053Z,2.58
2023-05-06T02:03:09.112Z,2.88
2023-05-06T02:05:14.564Z,2.50
2023-05-06T02:07:23.757Z,2.72
2023-05-06T02:09:28.624Z,2.60
2023-05-06T02:11:38.241Z,2.70
2023-05-06T02:13:47.886Z,2.47
2023-05-06T02:15:56.229Z,3.28
2023-05-06T02:18:02.686Z,2.63
2023-05-06T02:20:09.983Z,2.78
2023-05-06T02:22:14.904Z,2.95
2023-05-06T02:24:19.769Z,2.40
2023-05-06T02:26:24.750Z,2.60
2023-05-06T02:28:29.714Z,2.58
2023-05-06T02:30:37.280Z,2.83
2023-05-06T02:32:42.135Z,2.28
2023-05-06T02:34:46.977Z,2.72
2023-05-06T02:36:51.752Z,3.22
2023-05-06T02:38:56.729Z,2.47
2023-05-06T02:41:01.586Z,2.88
2023-05-06T02:43:06.414Z,2.50
2023-05-06T02:45:13.330Z,2.53
2023-05-06T02:47:20.897Z,2.78
2023-05-06T02:49:25.747Z,2.35
2023-05-06T02:51:31.325Z,2.80
2023-05-06T02:53:36.505Z,2.58
2023-05-06T02:55:41.416Z,2.92
2023-05-06T02:57:46.245Z,3.05
2023-05-06T02:59:51.215Z,2.42
2023-05-06T03:01:56.927Z,2.63
2023-05-06T03:04:04.579Z,2.55
2023-05-06T03:06:09.639Z,2.88
2023-05-06T03:08:14.607Z,3.25
2023-05-06T03:10:19.608Z,2.85
2023-05-06T03:12:24.556Z,2.70
2023-05-06T03:14:29.448Z,2.40
2023-05-06T03:16:34.915Z,2.83
2023-05-06T03:18:39.941Z,2.90
2023-05-06T03:20:47.468Z,2.55
2023-05-06T03:22:53.139Z,2.80
2023-05-06T03:24:59.493Z,2.70
2023-05-06T03:27:06.085Z,2.80
2023-05-06T03:29:11.726Z,2.92
2023-05-06T03:31:16.942Z,3.10
2023-05-06T03:33:22.240Z,2.97
2023-05-06T03:35:27.572Z,3.00
2023-05-06T03:37:38.210Z,2.75
2023-05-06T03:39:43.104Z,2.75
2023-05-06T03:41:48.415Z,3.03
2023-05-06T03:43:55.770Z,2.55
2023-05-06T03:46:03.930Z,3.17
2023-05-06T03:48:12.087Z,2.83
2023-05-06T03:50:20.669Z,2.50
2023-05-06T03:52:26.393Z,2.58
2023-05-06T03:54:34.344Z,2.70
2023-05-06T03:56:40.323Z,3.28
2023-05-06T03:58:45.551Z,2.80
2023-05-06T04:00:50.745Z,2.95
2023-05-06T04:02:55.761Z,2.88
2023-05-06T04:05:08.763Z,2.58
2023-05-06T04:07:14.019Z,2.40
2023-05-06T04:09:19.235Z,2.50
2023-05-06T04:11:29.784Z,2.97
2023-05-06T04:13:37.365Z,2.53
2023-05-06T04:15:47.818Z,2.90
2023-05-06T04:17:57.923Z,3.17
2023-05-06T04:20:10.810Z,2.63
2023-05-06T04:22:17.601Z,2.47
2023-05-06T04:24:23.198Z,2.65
2023-05-06T04:26:31.659Z,2.17
2023-05-06T04:28:36.887Z,2.30
2023-05-06T04:30:42.422Z,2.28
2023-05-06T04:32:47.629Z,2.45
2023-05-06T04:34:53.423Z,2.30
2023-05-06T04:36:58.616Z,2.25
2023-05-06T04:39:20.769Z,2.40
2023-05-06T04:41:27.138Z,2.50
2023-05-06T04:43:35.319Z,2.40
2023-05-06T04:45:50.558Z,2.88
2023-05-06T04:48:00.708Z,2.40
2023-05-06T04:50:06.130Z,2.35
2023-05-06T04:52:11.143Z,2.53
2023-05-06T04:54:16.534Z,2.40
2023-05-06T04:56:21.572Z,2.20
2023-05-06T04:58:27.929Z,2.25
2023-05-06T05:00:37.206Z,2.55
2023-05-06T05:02:43.091Z,2.60
2023-05-06T05:04:48.776Z,2.90
2023-05-06T05:06:53.953Z,2.50
2023-05-06T05:08:59.646Z,2.50
2023-05-06T05:11:05.296Z,2.45
2023-05-06T05:13:10.707Z,2.25
2023-05-06T05:15:16.032Z,3.10
2023-05-06T05:17:24.143Z,2.65
2023-05-06T05:19:30.541Z,2.72
2023-05-06T05:21:35.903Z,2.50
2023-05-06T05:23:42.010Z,2.58
2023-05-06T05:25:47.645Z,2.38
2023-05-06T05:27:52.537Z,3.08
2023-05-06T05:29:57.643Z,2.60
2023-05-06T05:32:02.863Z,2.60
2023-05-06T05:34:10.497Z,3.28
2023-05-06T05:36:16.425Z,2.80
2023-05-06T05:38:23.706Z,2.63
2023-05-06T05:40:29.047Z,3.13
2023-05-06T05:42:34.808Z,2.83
2023-05-06T05:44:44.877Z,2.90
2023-05-06T05:46:49.897Z,2.40
2023-05-06T05:48:57.378Z,2.55
2023-05-06T05:51:05.631Z,2.97
2023-05-06T05:53:10.968Z,2.90
2023-05-06T05:55:16.613Z,3.15
2023-05-06T05:57:23.767Z,3.20
2023-05-06T05:59:30.238Z,3.28
2023-05-06T06:01:40.872Z,3.85
2023-05-06T06:03:46.976Z,3.45
2023-05-06T06:05:53.079Z,3.88
2023-05-06T06:08:03.518Z,3.83
2023-05-06T06:10:10.749Z,3.97
2023-05-06T06:12:15.995Z,3.78
2023-05-06T06:14:20.921Z,3.88
2023-05-06T06:16:27.246Z,4.20
2023-05-06T06:18:32.224Z,4.10
2023-05-06T06:20:37.178Z,3.83
2023-05-06T06:22:42.072Z,4.03
2023-05-06T06:24:49.511Z,4.20
2023-05-06T06:26:54.954Z,4.30
2023-05-06T06:28:59.868Z,4.22
2023-05-06T06:31:04.952Z,4.25
2023-05-06T06:33:10.991Z,3.97
2023-05-06T06:35:15.882Z,4.32
2023-05-06T06:37:20.640Z,4.53
2023-05-06T06:39:25.526Z,4.28
2023-05-06T06:41:32.987Z,4.82
2023-05-06T06:43:37.975Z,4.85
2023-05-06T06:45:54.712Z,4.40
2023-05-06T06:47:59.685Z,4.95
2023-05-06T06:50:04.526Z,5.40
2023-05-06T06:52:09.514Z,5.03
2023-05-06T06:54:14.380Z,4.72
2023-05-06T06:56:19.364Z,4.75
2023-05-06T06:58:26.822Z,5.20
2023-05-06T07:00:31.776Z,4.90
2023-05-06T07:02:36.864Z,5.05
2023-05-06T07:04:42.175Z,4.82
2023-05-06T07:06:47.316Z,5.07
2023-05-06T07:08:52.271Z,5.10
2023-05-06T07:10:57.147Z,4.88
2023-05-06T07:13:02.344Z,5.35
2023-05-06T07:15:11.098Z,4.68
2023-05-06T07:17:16.226Z,5.05
2023-05-06T07:19:21.158Z,5.55
2023-05-06T07:21:26.115Z,4.32
2023-05-06T07:23:32.182Z,4.47
2023-05-06T07:25:37.779Z,4.93
2023-05-06T07:27:42.555Z,4.72
2023-05-06T07:29:47.708Z,4.28
2023-05-06T07:31:55.279Z,4.60
2023-05-06T07:34:00.141Z,3.85
2023-05-06T07:36:04.909Z,4.15
2023-05-06T07:38:09.680Z,4.32
2023-05-06T07:40:15.346Z,4.10
2023-05-06T07:42:20.178Z,4.22
2023-05-06T07:44:25.112Z,3.95
2023-05-06T07:46:30.187Z,3.88
2023-05-06T07:48:37.663Z,3.72
2023-05-06T07:50:42.456Z,4.05
2023-05-06T07:52:47.560Z,3.80
2023-05-06T07:54:52.404Z,3.88
2023-05-06T07:56:57.215Z,4.00
2023-05-06T07:59:02.222Z,3.95
2023-05-06T08:01:07.344Z,3.75
2023-05-06T08:03:12.225Z,3.92
2023-05-06T08:05:19.651Z,4.57
2023-05-06T08:07:24.578Z,3.97
2023-05-06T08:09:29.361Z,4.05
2023-05-06T08:11:34.261Z,3.67
2023-05-06T08:13:38.979Z,3.67
2023-05-06T08:15:44.212Z,4.03
2023-05-06T08:17:48.922Z,3.72
2023-05-06T08:19:53.929Z,3.55
2023-05-06T08:22:01.783Z,3.75
2023-05-06T08:24:07.076Z,3.63
2023-05-06T08:26:12.204Z,3.50
2023-05-06T08:28:16.998Z,3.50
2023-05-06T08:30:21.760Z,3.28
2023-05-06T08:32:26.631Z,3.63
2023-05-06T08:34:31.468Z,4.10
2023-05-06T08:36:36.276Z,3.72
2023-05-06T08:38:49.125Z,3.35
2023-05-06T08:40:56.174Z,3.42
2023-05-06T08:43:02.361Z,3.55
2023-05-06T08:45:08.445Z,3.60
2023-05-06T08:47:13.523Z,3.80
2023-05-06T08:49:18.464Z,4.25
2023-05-06T08:51:26.234Z,3.55
2023-05-06T08:53:32.173Z,3.63
2023-05-06T08:55:40.526Z,3.58
2023-05-06T08:57:47.924Z,3.42
2023-05-06T08:59:53.133Z,3.20
2023-05-06T09:01:58.009Z,3.70
2023-05-06T09:04:03.999Z,3.13
2023-05-06T09:06:09.209Z,2.83
2023-05-06T09:08:15.991Z,3.33
2023-05-06T09:10:20.840Z,3.30
2023-05-06T09:12:29.736Z,3.13
2023-05-06T09:14:34.504Z,3.08
2023-05-06T09:16:39.915Z,2.72
2023-05-06T09:18:45.749Z,2.60
2023-05-06T09:20:52.137Z,3.05
2023-05-06T09:22:57.353Z,3.08
2023-05-06T09:25:02.597Z,3.35
2023-05-06T09:27:10.409Z,2.95
2023-05-06T09:29:18.958Z,3.20
2023-05-06T09:31:24.127Z,3.13
2023-05-06T09:33:30.520Z,3.03
2023-05-06T09:35:43.052Z,3.30
2023-05-06T09:37:48.201Z,2.97
2023-05-06T09:39:57.355Z,3.20
2023-05-06T09:42:03.369Z,2.70
2023-05-06T09:44:08.612Z,3.10
2023-05-06T09:46:16.383Z,2.55
2023-05-06T09:48:21.284Z,2.50
2023-05-06T09:50:27.474Z,2.70
2023-05-06T09:52:33.893Z,2.60
2023-05-06T09:54:39.185Z,2.55
2023-05-06T09:56:48.062Z,1.90
2023-05-06T09:58:54.894Z,2.33
2023-05-06T10:01:00.592Z,2.28
2023-05-06T10:03:08.584Z,1.65
2023-05-06T10:05:15.199Z,1.63
2023-05-06T10:07:23.852Z,1.17
2023-05-06T10:09:29.589Z,1.38
2023-05-06T10:11:35.254Z,1.20
2023-05-06T10:13:43.233Z,1.55
2023-05-06T10:15:49.945Z,1.60
2023-05-06T10:17:56.433Z,1.40
2023-05-06T10:20:05.356Z,1.40
2023-05-06T10:22:18.144Z,1.40
2023-05-06T10:24:32.096Z,1.77
2023-05-06T10:26:39.223Z,2.08
2023-05-06T10:28:46.883Z,1.90
2023-05-06T10:30:53.596Z,2.00
2023-05-06T10:33:02.458Z,1.50
2023-05-06T10:35:15.134Z,1.60
2023-05-06T10:37:19.911Z,1.40
2023-05-06T10:39:24.831Z,1.55
2023-05-06T10:41:31.402Z,1.30
2023-05-06T10:43:37.429Z,1.48
2023-05-06T10:46:02.549Z,1.58
2023-05-06T10:48:13.602Z,1.25
2023-05-06T10:50:27.716Z,1.45
2023-05-06T10:52:47.176Z,1.48
2023-05-06T10:54:53.450Z,1.50
2023-05-06T10:57:12.126Z,1.40
2023-05-06T10:59:17.350Z,1.25
2023-05-06T11:01:24.693Z,1.40
2023-05-06T11:03:29.655Z,1.42
2023-05-06T11:05:49.597Z,1.60
2023-05-06T11:07:55.311Z,1.17
2023-05-06T11:10:01.829Z,1.30
2023-05-06T11:12:07.863Z,1.80
2023-05-06T11:14:15.908Z,1.60
2023-05-06T11:16:49.682Z,1.60
2023-05-06T11:18:55.286Z,1.42
2023-05-06T11:21:30.636Z,1.33
2023-05-06T11:24:05.611Z,1.50
2023-05-06T11:26:14.203Z,1.40
2023-05-06T11:28:19.212Z,1.40
2023-05-06T11:30:24.154Z,1.60
2023-05-06T11:32:31.884Z,1.90
2023-05-06T11:34:38.573Z,1.10
2023-05-06T11:37:02.666Z,1.10
2023-05-06T11:39:11.119Z,1.27
2023-05-06T11:41:19.172Z,1.40
2023-05-06T11:43:23.885Z,1.35
2023-05-06T11:45:28.701Z,1.10
2023-05-06T11:47:33.604Z,1.20
2023-05-06T11:49:40.270Z,1.20
2023-05-06T11:51:44.955Z,0.93
2023-05-06T11:53:50.102Z,1.13
2023-05-06T11:55:56.427Z,1.00
2023-05-06T11:58:03.737Z,0.77
2023-05-06T12:00:11.258Z,1.10
2023-05-06T12:02:17.977Z,1.10
2023-05-06T12:04:22.897Z,1.10
2023-05-06T12:06:36.708Z,1.00
2023-05-06T12:08:42.397Z,1.00
2023-05-06T12:10:47.136Z,1.45
2023-05-06T12:12:52.034Z,1.08
2023-05-06T12:14:59.635Z,1.15
2023-05-06T12:17:04.555Z,0.80
2023-05-06T12:19:09.324Z,1.00
2023-05-06T12:21:14.074Z,1.10
2023-05-06T12:23:20.179Z,0.82
2023-05-06T12:25:24.902Z,1.00
2023-05-06T12:27:34.572Z,0.90
2023-05-06T12:29:39.379Z,0.95
2023-05-06T12:31:47.419Z,0.90
2023-05-06T12:33:53.044Z,1.05
2023-05-06T12:36:10.085Z,1.20
2023-05-06T12:38:16.445Z,1.23
2023-05-06T12:40:21.246Z,1.20
2023-05-06T12:42:26.334Z,1.02
2023-05-06T12:44:35.414Z,1.02
2023-05-06T12:46:56.256Z,1.30
2023-05-06T12:49:02.612Z,1.00
2023-05-06T12:51:20.806Z,0.90
2023-05-06T12:53:34.644Z,0.90
2023-05-06T12:55:41.823Z,0.88
2023-05-06T12:57:46.586Z,0.85
2023-05-06T12:59:52.346Z,0.90
2023-05-06T13:01:59.970Z,0.90
2023-05-06T13:04:04.936Z,0.90
2023-05-06T13:06:09.893Z,1.00
2023-05-06T13:08:14.644Z,0.80
2023-05-06T13:10:19.380Z,0.80
2023-05-06T13:12:24.300Z,1.00
2023-05-06T13:14:29.687Z,0.80
2023-05-06T13:16:35.428Z,0.90
2023-05-06T13:18:42.948Z,0.70
2023-05-06T13:20:47.688Z,1.10
2023-05-06T13:22:55.107Z,0.90
2023-05-06T13:25:00.276Z,0.88
2023-05-06T13:27:05.022Z,1.08
2023-05-06T13:29:10.108Z,0.82
2023-05-06T13:31:14.885Z,1.10
2023-05-06T13:33:19.950Z,0.88
2023-05-06T13:35:27.500Z,0.90
2023-05-06T13:37:32.768Z,1.23
2023-05-06T13:39:38.199Z,0.82
2023-05-06T13:41:42.936Z,0.93
2023-05-06T13:43:47.701Z,0.80
2023-05-06T13:45:52.672Z,0.80
2023-05-06T13:47:57.701Z,1.20
2023-05-06T13:50:03.914Z,1.35
2023-05-06T13:52:11.294Z,0.90
2023-05-06T13:54:16.218Z,0.90
2023-05-06T13:56:21.729Z,1.17
2023-05-06T13:58:26.484Z,1.00
2023-05-06T14:00:31.309Z,0.93
2023-05-06T14:02:36.440Z,1.00
2023-05-06T14:04:41.769Z,0.98
2023-05-06T14:06:46.485Z,0.98
2023-05-06T14:08:53.800Z,0.90
2023-05-06T14:10:58.579Z,0.82
2023-05-06T14:13:06.243Z,0.73
2023-05-06T14:15:14.921Z,0.80
2023-05-06T14:17:19.974Z,0.80
2023-05-06T14:19:25.661Z,0.80
2023-05-06T14:21:30.796Z,1.13
2023-05-06T14:23:35.490Z,0.98
2023-05-06T14:25:42.980Z,1.02
2023-05-06T14:27:48.282Z,0.88
2023-05-06T14:29:53.137Z,1.00
2023-05-06T14:31:57.838Z,1.00
2023-05-06T14:34:02.821Z,0.90
2023-05-06T14:36:08.552Z,0.90
2023-05-06T14:38:13.447Z,0.52
2023-05-06T14:40:18.905Z,0.68
2023-05-06T14:42:26.437Z,0.80
2023-05-06T14:44:31.360Z,0.95
2023-05-06T14:46:36.091Z,0.77
2023-05-06T14:48:40.818Z,0.60
2023-05-06T14:50:45.565Z,0.60
2023-05-06T14:52:50.412Z,0.93
2023-05-06T14:54:55.866Z,1.00
2023-05-06T14:57:02.997Z,1.00
2023-05-06T14:59:10.285Z,0.65
2023-05-06T15:01:15.080Z,1.00
2023-05-06T15:03:19.766Z,0.82
2023-05-06T15:05:24.476Z,0.70
2023-05-06T15:07:29.249Z,0.80
2023-05-06T15:09:34.088Z,0.73
2023-05-06T15:11:39.218Z,1.20
2023-05-06T15:13:43.925Z,0.77
2023-05-06T15:15:51.313Z,0.70
2023-05-06T15:17:56.398Z,0.90
2023-05-06T15:20:01.477Z,1.00
2023-05-06T15:22:06.341Z,0.90
2023-05-06T15:24:11.568Z,0.93
2023-05-06T15:26:16.563Z,0.90
2023-05-06T15:28:24.265Z,1.50
2023-05-06T15:30:29.324Z,1.83
2023-05-06T15:32:36.787Z,0.90
2023-05-06T15:34:41.611Z,0.88
2023-05-06T15:36:47.272Z,0.60
2023-05-06T15:39:09.916Z,0.60
2023-05-06T15:41:14.868Z,0.50
2023-05-06T15:43:23.710Z,0.90
2023-05-06T15:45:29.084Z,0.70
2023-05-06T15:47:36.464Z,0.70
2023-05-06T15:51:49.586Z,0.65
2023-05-06T15:53:54.269Z,0.55
2023-05-06T15:58:06.883Z,0.43
2023-05-06T16:00:15.172Z,0.70
2023-05-06T16:04:30.597Z,0.73
2023-05-06T16:06:36.090Z,0.70
2023-05-06T16:08:41.451Z,0.90
2023-05-06T16:10:46.466Z,0.50
2023-05-06T16:12:51.197Z,0.70
2023-05-06T16:14:55.980Z,0.70
2023-05-06T16:17:01.217Z,0.68
2023-05-06T16:19:05.865Z,0.52
2023-05-06T16:21:13.122Z,0.52
2023-05-06T16:23:18.034Z,0.50
2023-05-06T16:25:22.839Z,0.50
2023-05-06T16:27:28.377Z,0.60
2023-05-06T16:29:33.212Z,0.73
2023-05-06T16:31:38.208Z,0.70
2023-05-06T16:33:43.136Z,0.95
2023-05-06T16:35:48.438Z,0.70
2023-05-06T16:37:55.765Z,0.68
2023-05-06T16:40:00.850Z,0.30
2023-05-06T16:42:05.690Z,0.68
2023-05-06T16:44:10.962Z,0.80
2023-05-06T16:46:15.752Z,0.50
2023-05-06T16:48:20.788Z,0.50
2023-05-06T16:50:25.654Z,0.50
2023-05-06T16:52:30.915Z,0.50
2023-05-06T16:54:38.322Z,0.80
2023-05-06T16:56:51.458Z,0.40
2023-05-06T16:58:57.096Z,0.63
2023-05-06T17:01:02.018Z,0.80
2023-05-06T17:03:08.283Z,0.98
2023-05-06T17:05:13.150Z,0.60
2023-05-06T17:07:17.822Z,0.70
2023-05-06T17:09:22.533Z,0.50
2023-05-06T17:11:32.423Z,0.60
2023-05-06T17:13:37.199Z,0.52
2023-05-06T17:15:42.329Z,0.77
2023-05-06T17:17:49.378Z,0.98
2023-05-06T17:19:54.394Z,0.73
2023-05-06T17:21:59.642Z,0.80
2023-05-06T17:24:04.485Z,1.40
2023-05-06T17:26:10.526Z,1.33
2023-05-06T17:28:18.799Z,1.70
2023-05-06T17:30:23.823Z,1.60
2023-05-06T17:32:28.618Z,0.93
2023-05-06T17:34:35.343Z,0.82
2023-05-06T17:36:40.482Z,0.82
2023-05-06T17:38:45.252Z,0.68
2023-05-06T17:40:50.435Z,0.80
2023-05-06T17:42:55.970Z,1.33
2023-05-06T17:45:03.340Z,1.50
2023-05-06T17:47:08.190Z,1.30
2023-05-06T17:49:13.138Z,1.50
2023-05-06T17:51:18.184Z,1.40
2023-05-06T17:53:23.187Z,1.05
2023-05-06T17:55:28.050Z,1.00
2023-05-06T17:57:34.692Z,1.20
2023-05-06T17:59:39.593Z,0.95
2023-05-06T18:01:46.974Z,0.70
2023-05-06T18:03:51.782Z,1.17
2023-05-06T18:05:56.752Z,0.88
2023-05-06T18:08:01.907Z,1.17
2023-05-06T18:10:07.339Z,1.10
2023-05-06T18:12:12.072Z,0.93
2023-05-06T18:14:16.875Z,0.80
2023-05-06T18:16:21.685Z,0.60
2023-05-06T18:18:29.208Z,0.98
2023-05-06T18:20:34.855Z,0.90
2023-05-06T18:22:39.962Z,0.45
2023-05-06T18:24:44.685Z,0.80
2023-05-06T18:26:49.466Z,0.63
2023-05-06T18:28:54.326Z,0.77
2023-05-06T18:30:59.348Z,0.80
2023-05-06T18:33:04.151Z,1.00
2023-05-06T18:35:13.286Z,1.00
2023-05-06T18:37:18.170Z,1.30
2023-05-06T18:39:26.741Z,1.25
2023-05-06T18:41:32.056Z,0.93
2023-05-06T18:43:36.986Z,1.10
2023-05-06T18:45:43.147Z,0.70
2023-05-06T18:47:47.964Z,0.80
2023-05-06T18:49:53.463Z,0.80
2023-05-06T18:52:02.224Z,1.00
2023-05-06T18:54:07.196Z,0.85
2023-05-06T18:56:12.816Z,0.65
2023-05-06T18:58:18.654Z,0.60
2023-05-06T19:00:24.417Z,1.23
2023-05-06T19:02:29.343Z,1.00
2023-05-06T19:04:34.378Z,1.08
2023-05-06T19:06:39.379Z,0.77
2023-05-06T19:08:47.027Z,0.98
2023-05-06T19:10:51.832Z,0.95
2023-05-06T19:12:56.709Z,1.13
2023-05-06T19:15:01.453Z,0.90
2023-05-06T19:17:08.161Z,0.85
2023-05-06T19:19:13.004Z,1.48
2023-05-06T19:21:18.764Z,1.02
2023-05-06T19:23:23.477Z,1.00
2023-05-06T19:25:30.802Z,0.80
2023-05-06T19:27:35.597Z,0.90
2023-05-06T19:29:40.501Z,0.90
2023-05-06T19:31:45.351Z,1.00
2023-05-06T19:33:50.152Z,0.85
2023-05-06T19:35:55.013Z,0.90
2023-05-06T19:37:59.822Z,0.80
2023-05-06T19:40:05.117Z,1.10
2023-05-06T19:42:12.484Z,1.10
2023-05-06T19:44:17.411Z,1.08
2023-05-06T19:46:22.223Z,1.40
2023-05-06T19:48:27.262Z,1.30
2023-05-06T19:50:33.606Z,1.20
2023-05-06T19:52:38.343Z,1.38
2023-05-06T19:54:43.217Z,1.85
2023-05-06T19:56:47.942Z,1.40
2023-05-06T19:58:55.492Z,1.50
2023-05-06T20:01:00.213Z,1.70
2023-05-06T20:03:05.017Z,1.55
2023-05-06T20:05:10.674Z,1.70
2023-05-06T20:07:16.584Z,1.17
2023-05-06T20:09:21.434Z,1.40
2023-05-06T20:11:26.221Z,1.17
2023-05-06T20:13:31.021Z,1.10
2023-05-06T20:15:38.384Z,1.10
2023-05-06T20:17:43.118Z,1.48
2023-05-06T20:19:48.181Z,1.00
2023-05-06T20:21:54.134Z,0.90
2023-05-06T20:23:58.836Z,1.50
2023-05-06T20:26:03.546Z,1.20
2023-05-06T20:28:09.349Z,1.33
2023-05-06T20:30:14.610Z,1.30
2023-05-06T20:32:22.111Z,1.25
2023-05-06T20:34:27.047Z,1.23
2023-05-06T20:36:31.962Z,1.33
2023-05-06T20:38:36.725Z,1.13
2023-05-06T20:40:41.457Z,1.08
2023-05-06T20:42:46.475Z,1.48
2023-05-06T20:44:53.792Z,1.15
2023-05-06T20:46:58.490Z,1.20
2023-05-06T20:49:05.817Z,1.50
2023-05-06T20:51:10.556Z,1.95
2023-05-06T20:53:15.346Z,1.77
2023-05-06T20:55:23.266Z,1.60
2023-05-06T20:57:28.587Z,1.70
2023-05-06T20:59:33.336Z,2.20
2023-05-06T21:01:38.330Z,1.65
2023-05-06T21:03:43.233Z,1.80
2023-05-06T21:05:50.575Z,2.05
2023-05-06T21:07:55.318Z,1.92
2023-05-06T21:10:00.225Z,2.20
2023-05-06T21:12:04.954Z,1.70
2023-05-06T21:14:10.127Z,1.65
2023-05-06T21:16:14.827Z,1.48
2023-05-06T21:18:19.860Z,1.63
2023-05-06T21:20:24.689Z,1.67
2023-05-06T21:22:31.994Z,2.00
2023-05-06T21:24:36.705Z,1.38
2023-05-06T21:26:41.927Z,1.60
2023-05-06T21:28:51.340Z,1.65
2023-05-06T21:30:56.104Z,1.10
2023-05-06T21:33:00.998Z,1.60
2023-05-06T21:35:06.403Z,1.65
2023-05-06T21:37:11.432Z,1.70
2023-05-06T21:39:18.767Z,1.02
2023-05-06T21:41:23.478Z,1.40
2023-05-06T21:43:28.211Z,1.30
2023-05-06T21:45:32.868Z,1.52
2023-05-06T21:47:37.666Z,1.58
2023-05-06T21:49:42.398Z,1.70
2023-05-06T21:51:47.295Z,1.92
2023-05-06T21:53:52.877Z,4.47
2023-05-06T21:56:00.216Z,10.65
2023-05-06T21:58:04.899Z,8.55
2023-05-06T22:00:12.524Z,7.85
2023-05-06T22:02:17.390Z,4.63
2023-05-06T22:04:22.143Z,2.30
2023-05-06T22:06:26.879Z,1.65
2023-05-06T22:08:31.696Z,1.33
2023-05-06T22:10:36.420Z,1.55
2023-05-06T22:12:43.867Z,1.52
2023-05-06T22:14:48.643Z,1.00
2023-05-06T22:16:53.563Z,1.65
2023-05-06T22:18:59.444Z,1.17
2023-05-06T22:21:04.510Z,1.40
2023-05-06T22:23:09.170Z,1.20
2023-05-06T22:25:14.222Z,1.40
2023-05-06T22:27:19.081Z,1.52
2023-05-06T22:29:26.411Z,1.30
2023-05-06T22:31:31.377Z,1.30
2023-05-06T22:33:36.154Z,1.40
2023-05-06T22:35:41.124Z,1.60
2023-05-06T22:37:45.982Z,1.60
2023-05-06T22:39:51.000Z,1.58
2023-05-06T22:41:55.834Z,1.70
2023-05-06T22:44:01.886Z,1.75
2023-05-06T22:46:09.914Z,1.88
2023-05-06T22:48:14.761Z,2.10
2023-05-06T22:50:19.729Z,1.77
2023-05-06T22:52:25.468Z,2.08
2023-05-06T22:54:30.170Z,2.60
2023-05-06T22:56:34.922Z,2.42
2023-05-06T22:58:39.782Z,1.70
2023-05-06T23:00:47.957Z,1.58
2023-05-06T23:02:55.589Z,1.48
2023-05-06T23:05:00.403Z,1.90
2023-05-06T23:07:05.329Z,1.60
2023-05-06T23:09:10.057Z,1.50
2023-05-06T23:11:14.805Z,1.63
2023-05-06T23:13:19.569Z,2.03
2023-05-06T23:15:24.589Z,1.70
2023-05-06T23:17:29.533Z,1.85
2023-05-06T23:19:36.874Z,1.98
2023-05-06T23:21:43.976Z,1.90
2023-05-06T23:23:48.809Z,2.00
2023-05-06T23:25:53.498Z,2.10
2023-05-06T23:27:58.245Z,2.38
2023-05-06T23:30:03.020Z,2.05
2023-05-06T23:32:08.694Z,2.35
2023-05-06T23:34:13.425Z,2.28
2023-05-06T23:36:21.415Z,2.42
2023-05-06T23:38:26.105Z,2.42
2023-05-06T23:40:30.900Z,2.30
2023-05-06T23:42:35.782Z,2.55
2023-05-06T23:44:40.604Z,2.38
2023-05-06T23:46:45.372Z,2.28
2023-05-06T23:48:50.245Z,2.47
2023-05-06T23:50:54.937Z,2.40
2023-05-06T23:53:02.360Z,2.70
2023-05-06T23:55:08.226Z,2.50
2023-05-06T23:57:13.258Z,2.70
2023-05-06T23:59:17.940Z,2.38
